Roanoke — WDD9656 — position and weather

sailwx.info

Track history (hours):
 
Tides and Currents Weather Stations Pressure Air Temp Water Temp Dewpoint Dewpoint Depression Visibility Wind Speed Wind Dir Waves Ship Positions

Roanoke

Owner: Vane Line Bunkering, Baltimore, MD. More information available from US FCC via Universal Licensing System and Coast Guard Vessel Documentation Center.

Last reported at 2016-Jul-24 23:33 UTC. Time now 2016-Jul-25 00:22 UTC.
Position N 39°35' W 075°36'.

Length 32 m; draft 13 m.

Type: Towing. MMSI: 367314510.

Date/timePositionNaut miles runAvg speedWind from/ knotsBaromVisibWave heightAir tempDewpointWater temp
2016-Jul-24 23:33N 39°35' W 075°36'0 0.0
2016-Jul-24 22:33N 39°35' W 075°36'0 0.0
2016-Jul-24 21:33N 39°35' W 075°36'0 0.0
2016-Jul-24 20:32N 39°35' W 075°36'0 0.0
2016-Jul-24 19:32N 39°35' W 075°36'0 0.0
2016-Jul-24 18:30N 39°35' W 075°36'0 0.0
2016-Jul-24 17:31N 39°35' W 075°36'0 0.0
2016-Jul-24 16:32N 39°35' W 075°36'0 0.0
2016-Jul-24 15:32N 39°35' W 075°36'0 0.0
2016-Jul-24 14:33N 39°35' W 075°36'3 3.2
2016-Jul-24 13:34N 39°38' W 075°34'1110.5
2016-Jul-24 12:33N 39°47' W 075°27'10 9.6
2016-Jul-24 11:33N 39°51' W 075°16'6 6.2
2016-Jul-24 10:33N 39°54' W 075°08'0 0.2
2016-Jul-24 09:33N 39°54' W 075°09'0 0.0
2016-Jul-24 08:33N 39°54' W 075°09'0 0.0
2016-Jul-24 07:33N 39°54' W 075°09'0 0.0
2016-Jul-24 06:31N 39°54' W 075°09'0 0.0
2016-Jul-24 05:32N 39°54' W 075°09'0 0.0
2016-Jul-24 04:32N 39°54' W 075°09'0 0.0
2016-Jul-24 03:33N 39°54' W 075°09'0 0.0
2016-Jul-24 02:31N 39°54' W 075°09'0 0.0
2016-Jul-24 01:31N 39°54' W 075°09'0 0.0
2016-Jul-24 00:34N 39°54' W 075°09'0 0.0
2016-Jul-23 23:33N 39°54' W 075°09'0 0.0
2016-Jul-23 22:33N 39°54' W 075°09'0 0.2
2016-Jul-23 21:33N 39°54' W 075°08'0 0.1
2016-Jul-23 20:33N 39°54' W 075°08'0 0.0
2016-Jul-23 19:31N 39°54' W 075°08'0 0.0
2016-Jul-23 18:31N 39°54' W 075°08'0 0.1
2016-Jul-23 17:32N 39°54' W 075°08'8 8.1
2016-Jul-23 16:33N 39°51' W 075°18'9 9.4
2016-Jul-23 15:34N 39°46' W 075°28'8 8.4
2016-Jul-23 14:34N 39°39' W 075°33'6 6.3
2016-Jul-23 13:34N 39°33' W 075°38'1010.4
2016-Jul-23 12:33N 39°32' W 075°51'10 9.5
2016-Jul-23 11:33N 39°26' W 076°01'9 8.7
2016-Jul-23 10:33N 39°21' W 076°10'9 8.0
2016-Jul-23 09:24N 39°14' W 076°19'7 8.6
2016-Jul-23 08:33N 39°11' W 076°27'7 6.5
2016-Jul-23 07:32N 39°13' W 076°35'0 0.0
2016-Jul-23 06:33N 39°13' W 076°35'0 0.0
2016-Jul-23 04:31N 39°13' W 076°35'0 0.0
2016-Jul-23 03:29N 39°13' W 076°35'0 0.0
2016-Jul-23 02:12N 39°13' W 076°35'0 0.0
2016-Jul-23 01:33N 39°13' W 076°35'0 0.0
2016-Jul-23 00:31N 39°13' W 076°35'0 0.0
2016-Jul-22 23:32N 39°13' W 076°35'2 0.5
2016-Jul-22 19:29N 39°15' W 076°34'2 2.0
2016-Jul-22 18:32N 39°13' W 076°35'5 5.1
2016-Jul-22 17:34N 39°11' W 076°29'8 7.8
2016-Jul-22 16:33N 39°09' W 076°19'8 7.8
2016-Jul-22 15:32N 39°16' W 076°14'7 7.1
2016-Jul-22 14:33N 39°22' W 076°09'7 6.8
2016-Jul-22 13:33N 39°25' W 076°01'7 6.9
2016-Jul-22 12:33N 39°30' W 075°55'6 6.4
2016-Jul-22 11:34N 39°32' W 075°47'8 7.7
2016-Jul-22 10:34N 39°33' W 075°37'7 7.0
2016-Jul-22 09:34N 39°39' W 075°33'9 9.4
2016-Jul-22 08:34N 39°47' W 075°27'8 7.7
2016-Jul-22 07:34N 39°51' W 075°18'11 5.5
2016-Jul-22 05:34N 39°58' W 075°07'1 1.0
2016-Jul-22 04:33N 39°59' W 075°06'0 0.0
2016-Jul-22 03:31N 39°59' W 075°06'0 0.0
2016-Jul-22 02:32N 39°59' W 075°06'0 0.0
2016-Jul-22 01:33N 39°59' W 075°06'0 0.0
2016-Jul-22 00:33N 39°59' W 075°06'0 0.0
2016-Jul-21 23:33N 39°59' W 075°06'0 0.0
2016-Jul-21 22:31N 39°59' W 075°06'1 0.6
2016-Jul-21 21:33N 39°58' W 075°06'6 6.3
2016-Jul-21 20:32N 39°53' W 075°12'0 0.1
2016-Jul-21 19:32N 39°54' W 075°12'2 1.8
2016-Jul-21 18:32N 39°52' W 075°13'0 0.0
2016-Jul-21 17:32N 39°52' W 075°13'2 1.8
2016-Jul-21 16:33N 39°53' W 075°11'7 6.8
2016-Jul-21 15:32N 39°59' W 075°06'5 5.0
2016-Jul-21 14:33N 39°54' W 075°08'1 0.5
2016-Jul-21 13:33N 39°54' W 075°08'0 0.0
2016-Jul-21 12:31N 39°54' W 075°08'0 0.0
2016-Jul-21 11:33N 39°54' W 075°08'0 0.0
2016-Jul-21 10:32N 39°54' W 075°08'0 0.0
2016-Jul-21 09:33N 39°54' W 075°08'0 0.0
2016-Jul-21 08:31N 39°54' W 075°08'0 0.0
2016-Jul-21 07:31N 39°54' W 075°08'0 0.0
2016-Jul-21 06:32N 39°54' W 075°08'0 0.0
2016-Jul-21 05:33N 39°54' W 075°08'0 0.0
2016-Jul-21 04:33N 39°54' W 075°08'0 0.0
2016-Jul-21 03:31N 39°54' W 075°08'0 0.0
2016-Jul-21 02:33N 39°54' W 075°08'5 5.3
2016-Jul-21 01:34N 39°51' W 075°14'8 8.0
2016-Jul-21 00:33N 39°49' W 075°24'8 7.6
2016-Jul-20 23:34N 39°43' W 075°30'7 7.0
2016-Jul-20 22:33N 39°36' W 075°34'2 1.5
2016-Jul-20 21:31N 39°35' W 075°36'0 0.0
2016-Jul-20 20:32N 39°35' W 075°36'0 0.0
2016-Jul-20 19:32N 39°35' W 075°36'0 0.0
2016-Jul-20 18:33N 39°35' W 075°36'0 0.0
2016-Jul-20 17:31N 39°35' W 075°36'0 0.0
2016-Jul-20 16:31N 39°35' W 075°36'0 0.0
2016-Jul-20 15:32N 39°35' W 075°36'0 0.0
2016-Jul-20 14:33N 39°35' W 075°36'0 0.0
2016-Jul-20 13:33N 39°35' W 075°36'3 2.8
2016-Jul-20 12:29N 39°33' W 075°33'0 0.0
2016-Jul-20 11:33N 39°33' W 075°33'6 6.2
2016-Jul-20 10:33N 39°39' W 075°33'9 9.3
2016-Jul-20 09:34N 39°47' W 075°27'8 8.1
2016-Jul-20 08:33N 39°51' W 075°17'5 4.4
2016-Jul-20 07:31N 39°54' W 075°12'0 0.2
2016-Jul-20 06:33N 39°54' W 075°12'0 0.0
2016-Jul-20 05:33N 39°54' W 075°12'0 0.0
2016-Jul-20 04:31N 39°54' W 075°12'0 0.0
2016-Jul-20 03:32N 39°54' W 075°12'0 0.0
2016-Jul-20 02:30N 39°54' W 075°12'0 0.0
2016-Jul-20 01:30N 39°54' W 075°12'0 0.0
2016-Jul-20 00:31N 39°54' W 075°12'0 0.0
2016-Jul-19 23:32N 39°54' W 075°12'0 0.0
2016-Jul-19 22:32N 39°54' W 075°12'0 0.0
2016-Jul-19 21:33N 39°54' W 075°12'0 0.0
2016-Jul-19 20:31N 39°54' W 075°12'0 0.0
2016-Jul-19 19:28N 39°54' W 075°12'0 0.0
2016-Jul-19 18:29N 39°54' W 075°12'0 0.0
2016-Jul-19 17:33N 39°54' W 075°12'0 0.0
2016-Jul-19 16:30N 39°54' W 075°12'0 0.0
2016-Jul-19 15:31N 39°54' W 075°12'1 0.6
2016-Jul-19 14:33N 39°54' W 075°12'0 0.0
2016-Jul-19 13:31N 39°54' W 075°12'0 0.0
2016-Jul-19 12:32N 39°54' W 075°12'0 0.0
2016-Jul-19 11:32N 39°54' W 075°12'0 0.0
2016-Jul-19 10:32N 39°54' W 075°12'0 0.0
2016-Jul-19 09:31N 39°54' W 075°12'0 0.0
2016-Jul-19 08:31N 39°54' W 075°12'0 0.0
2016-Jul-19 07:32N 39°54' W 075°12'0 0.0
2016-Jul-19 04:31N 39°54' W 075°12'0 0.0
2016-Jul-19 03:32N 39°54' W 075°12'0 0.0
2016-Jul-19 02:32N 39°54' W 075°12'0 0.0
2016-Jul-19 01:33N 39°54' W 075°12'0 0.0
2016-Jul-19 00:28N 39°54' W 075°12'0 0.0
2016-Jul-18 23:31N 39°54' W 075°12'1 0.7
2016-Jul-18 22:33N 39°54' W 075°12'0 0.1
2016-Jul-18 21:32N 39°54' W 075°12'0 0.0
2016-Jul-18 20:33N 39°54' W 075°12'0 0.0
2016-Jul-18 19:31N 39°54' W 075°12'0 0.0
2016-Jul-18 18:31N 39°54' W 075°12'0 0.0
2016-Jul-18 17:32N 39°54' W 075°12'0 0.0
2016-Jul-18 16:30N 39°54' W 075°12'0 0.0
2016-Jul-18 15:33N 39°54' W 075°12'0 0.0
2016-Jul-18 14:31N 39°54' W 075°12'0 0.0
2016-Jul-18 13:32N 39°54' W 075°12'0 0.0
2016-Jul-18 12:33N 39°54' W 075°12'0 0.0
2016-Jul-18 11:33N 39°54' W 075°12'1 0.6
2016-Jul-18 10:32N 39°54' W 075°12'0 0.0
2016-Jul-18 09:33N 39°54' W 075°12'0 0.0
2016-Jul-18 08:33N 39°54' W 075°12'0 0.0
2016-Jul-18 07:31N 39°54' W 075°12'1 0.6
2016-Jul-18 06:33N 39°53' W 075°12'3 2.7
2016-Jul-18 05:34N 39°53' W 075°08'0 0.3
2016-Jul-18 04:31N 39°54' W 075°09'0 0.0
2016-Jul-18 03:32N 39°54' W 075°09'3 3.4
2016-Jul-18 02:34N 39°52' W 075°12'1 0.6
2016-Jul-18 01:33N 39°53' W 075°12'1 0.8
2016-Jul-18 00:33N 39°54' W 075°12'0 0.0
2016-Jul-17 23:31N 39°54' W 075°12'0 0.0
2016-Jul-17 22:32N 39°54' W 075°12'0 0.0
2016-Jul-17 21:33N 39°54' W 075°12'2 2.3
2016-Jul-17 20:34N 39°53' W 075°09'6 6.0
2016-Jul-17 19:31N 39°59' W 075°05'0 0.0
2016-Jul-17 18:32N 39°59' W 075°05'0 0.0
2016-Jul-17 17:33N 39°59' W 075°05'0 0.0
2016-Jul-17 16:33N 39°59' W 075°05'0 0.0
2016-Jul-17 15:31N 39°59' W 075°05'0 0.0
2016-Jul-17 14:32N 39°59' W 075°05'0 0.0
2016-Jul-17 13:32N 39°59' W 075°05'0 0.1
2016-Jul-17 12:33N 39°59' W 075°05'0 0.1
2016-Jul-17 11:31N 39°59' W 075°05'0 0.0
2016-Jul-17 10:32N 39°59' W 075°05'0 0.0
2016-Jul-17 09:31N 39°59' W 075°05'0 0.0
2016-Jul-17 08:34N 39°59' W 075°05'0 0.0
2016-Jul-17 07:30N 39°59' W 075°05'0 0.0
2016-Jul-17 06:33N 39°59' W 075°05'0 0.0
2016-Jul-17 04:32N 39°59' W 075°05'0 0.0
2016-Jul-17 03:32N 39°59' W 075°05'0 0.0
2016-Jul-17 02:33N 39°59' W 075°05'0 0.0
2016-Jul-17 01:31N 39°59' W 075°05'0 0.0
2016-Jul-17 00:31N 39°59' W 075°05'6 5.9
2016-Jul-16 23:33N 39°53' W 075°08'3 3.1
2016-Jul-16 22:33N 39°54' W 075°12'0 0.0
2016-Jul-16 21:30N 39°54' W 075°12'0 0.0
2016-Jul-16 20:31N 39°54' W 075°12'0 0.0
2016-Jul-16 19:32N 39°54' W 075°12'0 0.0
2016-Jul-16 18:32N 39°54' W 075°12'0 0.0
2016-Jul-16 17:31N 39°54' W 075°12'0 0.0
2016-Jul-16 16:31N 39°54' W 075°12'0 0.0
2016-Jul-16 15:32N 39°54' W 075°12'0 0.0
2016-Jul-16 14:33N 39°54' W 075°12'0 0.0
2016-Jul-16 13:31N 39°54' W 075°12'0 0.0
2016-Jul-16 12:31N 39°54' W 075°12'1 1.3
2016-Jul-16 11:33N 39°53' W 075°11'3 2.7
2016-Jul-16 10:32N 39°51' W 075°14'0 0.0
2016-Jul-16 09:31N 39°51' W 075°14'1 1.0
2016-Jul-16 08:32N 39°51' W 075°15'5 4.9
2016-Jul-16 07:33N 39°53' W 075°09'1 1.0
2016-Jul-16 06:33N 39°54' W 075°08'1 0.3
2016-Jul-16 04:34N 39°54' W 075°08'5 5.0
2016-Jul-16 03:34N 39°59' W 075°05'0 0.5
2016-Jul-16 02:33N 39°59' W 075°05'1 1.0
2016-Jul-16 01:33N 39°59' W 075°04'3 3.3
2016-Jul-16 00:33N 39°57' W 075°08'4 3.5
2016-Jul-15 23:31N 39°54' W 075°08'2 2.4
2016-Jul-15 22:31N 39°54' W 075°12'0 0.0
2016-Jul-15 21:31N 39°54' W 075°12'0 0.0
2016-Jul-15 20:32N 39°54' W 075°12'0 0.0
2016-Jul-15 19:33N 39°54' W 075°12'0 0.0
2016-Jul-15 18:33N 39°54' W 075°12'0 0.0
2016-Jul-15 17:31N 39°54' W 075°12'0 0.0
2016-Jul-15 16:32N 39°54' W 075°12'0 0.0
2016-Jul-15 15:32N 39°54' W 075°12'0 0.0
2016-Jul-15 14:33N 39°54' W 075°12'0 0.0
2016-Jul-15 13:31N 39°54' W 075°12'1 0.6
2016-Jul-15 12:33N 39°54' W 075°12'0 0.0
2016-Jul-15 11:31N 39°54' W 075°12'3 3.3
2016-Jul-15 10:33N 39°54' W 075°08'0 0.3
2016-Jul-15 09:32N 39°54' W 075°09'0 0.0
2016-Jul-15 08:33N 39°54' W 075°09'0 0.0
2016-Jul-15 07:32N 39°54' W 075°09'1 1.1
2016-Jul-15 06:31N 39°53' W 075°09'1 1.1
2016-Jul-15 05:31N 39°54' W 075°09'0 0.0
2016-Jul-15 04:31N 39°54' W 075°09'0 0.0
2016-Jul-15 03:32N 39°54' W 075°09'0 0.0
2016-Jul-15 02:33N 39°54' W 075°09'3 2.7
2016-Jul-15 01:34N 39°54' W 075°12'0 0.3
2016-Jul-15 00:33N 39°54' W 075°12'  
Track history (hours):
 
Tides and Currents Weather Stations Pressure Air Temp Water Temp Dewpoint Dewpoint Depression Visibility Wind Speed Wind Dir Waves Ship Positions

Roanoke

Owner: Vane Line Bunkering, Baltimore, MD. More information available from US FCC via Universal Licensing System and Coast Guard Vessel Documentation Center.

Last reported at 2016-Jul-24 23:33 UTC. Time now 2016-Jul-25 00:22 UTC.
Position N 39°35' W 075°36'.

Length 32 m; draft 13 m.

Type: Towing. MMSI: 367314510.

Date/timePositionNaut miles runAvg speedWind from/ knotsBaromVisibWave heightAir tempDewpointWater temp
2016-Jul-24 23:33N 39°35' W 075°36'0 0.0
2016-Jul-24 22:33N 39°35' W 075°36'0 0.0
2016-Jul-24 21:33N 39°35' W 075°36'0 0.0
2016-Jul-24 20:32N 39°35' W 075°36'0 0.0
2016-Jul-24 19:32N 39°35' W 075°36'0 0.0
2016-Jul-24 18:30N 39°35' W 075°36'0 0.0
2016-Jul-24 17:31N 39°35' W 075°36'0 0.0
2016-Jul-24 16:32N 39°35' W 075°36'0 0.0
2016-Jul-24 15:32N 39°35' W 075°36'0 0.0
2016-Jul-24 14:33N 39°35' W 075°36'3 3.2
2016-Jul-24 13:34N 39°38' W 075°34'1110.5
2016-Jul-24 12:33N 39°47' W 075°27'10 9.6
2016-Jul-24 11:33N 39°51' W 075°16'6 6.2
2016-Jul-24 10:33N 39°54' W 075°08'0 0.2
2016-Jul-24 09:33N 39°54' W 075°09'0 0.0
2016-Jul-24 08:33N 39°54' W 075°09'0 0.0
2016-Jul-24 07:33N 39°54' W 075°09'0 0.0
2016-Jul-24 06:31N 39°54' W 075°09'0 0.0
2016-Jul-24 05:32N 39°54' W 075°09'0 0.0
2016-Jul-24 04:32N 39°54' W 075°09'0 0.0
2016-Jul-24 03:33N 39°54' W 075°09'0 0.0
2016-Jul-24 02:31N 39°54' W 075°09'0 0.0
2016-Jul-24 01:31N 39°54' W 075°09'0 0.0
2016-Jul-24 00:34N 39°54' W 075°09'0 0.0
2016-Jul-23 23:33N 39°54' W 075°09'0 0.0
2016-Jul-23 22:33N 39°54' W 075°09'0 0.2
2016-Jul-23 21:33N 39°54' W 075°08'0 0.1
2016-Jul-23 20:33N 39°54' W 075°08'0 0.0
2016-Jul-23 19:31N 39°54' W 075°08'0 0.0
2016-Jul-23 18:31N 39°54' W 075°08'0 0.1
2016-Jul-23 17:32N 39°54' W 075°08'8 8.1
2016-Jul-23 16:33N 39°51' W 075°18'9 9.4
2016-Jul-23 15:34N 39°46' W 075°28'8 8.4
2016-Jul-23 14:34N 39°39' W 075°33'6 6.3
2016-Jul-23 13:34N 39°33' W 075°38'1010.4
2016-Jul-23 12:33N 39°32' W 075°51'10 9.5
2016-Jul-23 11:33N 39°26' W 076°01'9 8.7
2016-Jul-23 10:33N 39°21' W 076°10'9 8.0
2016-Jul-23 09:24N 39°14' W 076°19'7 8.6
2016-Jul-23 08:33N 39°11' W 076°27'7 6.5
2016-Jul-23 07:32N 39°13' W 076°35'0 0.0
2016-Jul-23 06:33N 39°13' W 076°35'0 0.0
2016-Jul-23 04:31N 39°13' W 076°35'0 0.0
2016-Jul-23 03:29N 39°13' W 076°35'0 0.0
2016-Jul-23 02:12N 39°13' W 076°35'0 0.0
2016-Jul-23 01:33N 39°13' W 076°35'0 0.0
2016-Jul-23 00:31N 39°13' W 076°35'0 0.0
2016-Jul-22 23:32N 39°13' W 076°35'2 0.5
2016-Jul-22 19:29N 39°15' W 076°34'2 2.0
2016-Jul-22 18:32N 39°13' W 076°35'5 5.1
2016-Jul-22 17:34N 39°11' W 076°29'8 7.8
2016-Jul-22 16:33N 39°09' W 076°19'8 7.8
2016-Jul-22 15:32N 39°16' W 076°14'7 7.1
2016-Jul-22 14:33N 39°22' W 076°09'7 6.8
2016-Jul-22 13:33N 39°25' W 076°01'7 6.9
2016-Jul-22 12:33N 39°30' W 075°55'6 6.4
2016-Jul-22 11:34N 39°32' W 075°47'8 7.7
2016-Jul-22 10:34N 39°33' W 075°37'7 7.0
2016-Jul-22 09:34N 39°39' W 075°33'9 9.4
2016-Jul-22 08:34N 39°47' W 075°27'8 7.7
2016-Jul-22 07:34N 39°51' W 075°18'11 5.5
2016-Jul-22 05:34N 39°58' W 075°07'1 1.0
2016-Jul-22 04:33N 39°59' W 075°06'0 0.0
2016-Jul-22 03:31N 39°59' W 075°06'0 0.0
2016-Jul-22 02:32N 39°59' W 075°06'0 0.0
2016-Jul-22 01:33N 39°59' W 075°06'0 0.0
2016-Jul-22 00:33N 39°59' W 075°06'0 0.0
2016-Jul-21 23:33N 39°59' W 075°06'0 0.0
2016-Jul-21 22:31N 39°59' W 075°06'1 0.6
2016-Jul-21 21:33N 39°58' W 075°06'6 6.3
2016-Jul-21 20:32N 39°53' W 075°12'0 0.1
2016-Jul-21 19:32N 39°54' W 075°12'2 1.8
2016-Jul-21 18:32N 39°52' W 075°13'0 0.0
2016-Jul-21 17:32N 39°52' W 075°13'2 1.8
2016-Jul-21 16:33N 39°53' W 075°11'7 6.8
2016-Jul-21 15:32N 39°59' W 075°06'5 5.0
2016-Jul-21 14:33N 39°54' W 075°08'1 0.5
2016-Jul-21 13:33N 39°54' W 075°08'0 0.0
2016-Jul-21 12:31N 39°54' W 075°08'0 0.0
2016-Jul-21 11:33N 39°54' W 075°08'0 0.0
2016-Jul-21 10:32N 39°54' W 075°08'0 0.0
2016-Jul-21 09:33N 39°54' W 075°08'0 0.0
2016-Jul-21 08:31N 39°54' W 075°08'0 0.0
2016-Jul-21 07:31N 39°54' W 075°08'0 0.0
2016-Jul-21 06:32N 39°54' W 075°08'0 0.0
2016-Jul-21 05:33N 39°54' W 075°08'0 0.0
2016-Jul-21 04:33N 39°54' W 075°08'0 0.0
2016-Jul-21 03:31N 39°54' W 075°08'0 0.0
2016-Jul-21 02:33N 39°54' W 075°08'5 5.3
2016-Jul-21 01:34N 39°51' W 075°14'8 8.0
2016-Jul-21 00:33N 39°49' W 075°24'8 7.6
2016-Jul-20 23:34N 39°43' W 075°30'7 7.0
2016-Jul-20 22:33N 39°36' W 075°34'2 1.5
2016-Jul-20 21:31N 39°35' W 075°36'0 0.0
2016-Jul-20 20:32N 39°35' W 075°36'0 0.0
2016-Jul-20 19:32N 39°35' W 075°36'0 0.0
2016-Jul-20 18:33N 39°35' W 075°36'0 0.0
2016-Jul-20 17:31N 39°35' W 075°36'0 0.0
2016-Jul-20 16:31N 39°35' W 075°36'0 0.0
2016-Jul-20 15:32N 39°35' W 075°36'0 0.0
2016-Jul-20 14:33N 39°35' W 075°36'0 0.0
2016-Jul-20 13:33N 39°35' W 075°36'3 2.8
2016-Jul-20 12:29N 39°33' W 075°33'0 0.0
2016-Jul-20 11:33N 39°33' W 075°33'6 6.2
2016-Jul-20 10:33N 39°39' W 075°33'9 9.3
2016-Jul-20 09:34N 39°47' W 075°27'8 8.1
2016-Jul-20 08:33N 39°51' W 075°17'5 4.4
2016-Jul-20 07:31N 39°54' W 075°12'0 0.2
2016-Jul-20 06:33N 39°54' W 075°12'0 0.0
2016-Jul-20 05:33N 39°54' W 075°12'0 0.0
2016-Jul-20 04:31N 39°54' W 075°12'0 0.0
2016-Jul-20 03:32N 39°54' W 075°12'0 0.0
2016-Jul-20 02:30N 39°54' W 075°12'0 0.0
2016-Jul-20 01:30N 39°54' W 075°12'0 0.0
2016-Jul-20 00:31N 39°54' W 075°12'0 0.0
2016-Jul-19 23:32N 39°54' W 075°12'0 0.0
2016-Jul-19 22:32N 39°54' W 075°12'0 0.0
2016-Jul-19 21:33N 39°54' W 075°12'0 0.0
2016-Jul-19 20:31N 39°54' W 075°12'0 0.0
2016-Jul-19 19:28N 39°54' W 075°12'0 0.0
2016-Jul-19 18:29N 39°54' W 075°12'0 0.0
2016-Jul-19 17:33N 39°54' W 075°12'0 0.0
2016-Jul-19 16:30N 39°54' W 075°12'0 0.0
2016-Jul-19 15:31N 39°54' W 075°12'1 0.6
2016-Jul-19 14:33N 39°54' W 075°12'0 0.0
2016-Jul-19 13:31N 39°54' W 075°12'0 0.0
2016-Jul-19 12:32N 39°54' W 075°12'0 0.0
2016-Jul-19 11:32N 39°54' W 075°12'0 0.0
2016-Jul-19 10:32N 39°54' W 075°12'0 0.0
2016-Jul-19 09:31N 39°54' W 075°12'0 0.0
2016-Jul-19 08:31N 39°54' W 075°12'0 0.0
2016-Jul-19 07:32N 39°54' W 075°12'0 0.0
2016-Jul-19 04:31N 39°54' W 075°12'0 0.0
2016-Jul-19 03:32N 39°54' W 075°12'0 0.0
2016-Jul-19 02:32N 39°54' W 075°12'0 0.0
2016-Jul-19 01:33N 39°54' W 075°12'0 0.0
2016-Jul-19 00:28N 39°54' W 075°12'0 0.0
2016-Jul-18 23:31N 39°54' W 075°12'1 0.7
2016-Jul-18 22:33N 39°54' W 075°12'0 0.1
2016-Jul-18 21:32N 39°54' W 075°12'0 0.0
2016-Jul-18 20:33N 39°54' W 075°12'0 0.0
2016-Jul-18 19:31N 39°54' W 075°12'0 0.0
2016-Jul-18 18:31N 39°54' W 075°12'0 0.0
2016-Jul-18 17:32N 39°54' W 075°12'0 0.0
2016-Jul-18 16:30N 39°54' W 075°12'0 0.0
2016-Jul-18 15:33N 39°54' W 075°12'0 0.0
2016-Jul-18 14:31N 39°54' W 075°12'0 0.0
2016-Jul-18 13:32N 39°54' W 075°12'0 0.0
2016-Jul-18 12:33N 39°54' W 075°12'0 0.0
2016-Jul-18 11:33N 39°54' W 075°12'1 0.6
2016-Jul-18 10:32N 39°54' W 075°12'0 0.0
2016-Jul-18 09:33N 39°54' W 075°12'0 0.0
2016-Jul-18 08:33N 39°54' W 075°12'0 0.0
2016-Jul-18 07:31N 39°54' W 075°12'1 0.6
2016-Jul-18 06:33N 39°53' W 075°12'3 2.7
2016-Jul-18 05:34N 39°53' W 075°08'0 0.3
2016-Jul-18 04:31N 39°54' W 075°09'0 0.0
2016-Jul-18 03:32N 39°54' W 075°09'3 3.4
2016-Jul-18 02:34N 39°52' W 075°12'1 0.6
2016-Jul-18 01:33N 39°53' W 075°12'1 0.8
2016-Jul-18 00:33N 39°54' W 075°12'0 0.0
2016-Jul-17 23:31N 39°54' W 075°12'0 0.0
2016-Jul-17 22:32N 39°54' W 075°12'0 0.0
2016-Jul-17 21:33N 39°54' W 075°12'2 2.3
2016-Jul-17 20:34N 39°53' W 075°09'6 6.0
2016-Jul-17 19:31N 39°59' W 075°05'0 0.0
2016-Jul-17 18:32N 39°59' W 075°05'0 0.0
2016-Jul-17 17:33N 39°59' W 075°05'0 0.0
2016-Jul-17 16:33N 39°59' W 075°05'0 0.0
2016-Jul-17 15:31N 39°59' W 075°05'0 0.0
2016-Jul-17 14:32N 39°59' W 075°05'0 0.0
2016-Jul-17 13:32N 39°59' W 075°05'0 0.1
2016-Jul-17 12:33N 39°59' W 075°05'0 0.1
2016-Jul-17 11:31N 39°59' W 075°05'0 0.0
2016-Jul-17 10:32N 39°59' W 075°05'0 0.0
2016-Jul-17 09:31N 39°59' W 075°05'0 0.0
2016-Jul-17 08:34N 39°59' W 075°05'0 0.0
2016-Jul-17 07:30N 39°59' W 075°05'0 0.0
2016-Jul-17 06:33N 39°59' W 075°05'0 0.0
2016-Jul-17 04:32N 39°59' W 075°05'0 0.0
2016-Jul-17 03:32N 39°59' W 075°05'0 0.0
2016-Jul-17 02:33N 39°59' W 075°05'0 0.0
2016-Jul-17 01:31N 39°59' W 075°05'0 0.0
2016-Jul-17 00:31N 39°59' W 075°05'6 5.9
2016-Jul-16 23:33N 39°53' W 075°08'3 3.1
2016-Jul-16 22:33N 39°54' W 075°12'0 0.0
2016-Jul-16 21:30N 39°54' W 075°12'0 0.0
2016-Jul-16 20:31N 39°54' W 075°12'0 0.0
2016-Jul-16 19:32N 39°54' W 075°12'0 0.0
2016-Jul-16 18:32N 39°54' W 075°12'0 0.0
2016-Jul-16 17:31N 39°54' W 075°12'0 0.0
2016-Jul-16 16:31N 39°54' W 075°12'0 0.0
2016-Jul-16 15:32N 39°54' W 075°12'0 0.0
2016-Jul-16 14:33N 39°54' W 075°12'0 0.0
2016-Jul-16 13:31N 39°54' W 075°12'0 0.0
2016-Jul-16 12:31N 39°54' W 075°12'1 1.3
2016-Jul-16 11:33N 39°53' W 075°11'3 2.7
2016-Jul-16 10:32N 39°51' W 075°14'0 0.0
2016-Jul-16 09:31N 39°51' W 075°14'1 1.0
2016-Jul-16 08:32N 39°51' W 075°15'5 4.9
2016-Jul-16 07:33N 39°53' W 075°09'1 1.0
2016-Jul-16 06:33N 39°54' W 075°08'1 0.3
2016-Jul-16 04:34N 39°54' W 075°08'5 5.0
2016-Jul-16 03:34N 39°59' W 075°05'0 0.5
2016-Jul-16 02:33N 39°59' W 075°05'1 1.0
2016-Jul-16 01:33N 39°59' W 075°04'3 3.3
2016-Jul-16 00:33N 39°57' W 075°08'4 3.5
2016-Jul-15 23:31N 39°54' W 075°08'2 2.4
2016-Jul-15 22:31N 39°54' W 075°12'0 0.0
2016-Jul-15 21:31N 39°54' W 075°12'0 0.0
2016-Jul-15 20:32N 39°54' W 075°12'0 0.0
2016-Jul-15 19:33N 39°54' W 075°12'0 0.0
2016-Jul-15 18:33N 39°54' W 075°12'0 0.0
2016-Jul-15 17:31N 39°54' W 075°12'0 0.0
2016-Jul-15 16:32N 39°54' W 075°12'0 0.0
2016-Jul-15 15:32N 39°54' W 075°12'0 0.0
2016-Jul-15 14:33N 39°54' W 075°12'0 0.0
2016-Jul-15 13:31N 39°54' W 075°12'1 0.6
2016-Jul-15 12:33N 39°54' W 075°12'0 0.0
2016-Jul-15 11:31N 39°54' W 075°12'3 3.3
2016-Jul-15 10:33N 39°54' W 075°08'0 0.3
2016-Jul-15 09:32N 39°54' W 075°09'0 0.0
2016-Jul-15 08:33N 39°54' W 075°09'0 0.0
2016-Jul-15 07:32N 39°54' W 075°09'1 1.1
2016-Jul-15 06:31N 39°53' W 075°09'1 1.1
2016-Jul-15 05:31N 39°54' W 075°09'0 0.0
2016-Jul-15 04:31N 39°54' W 075°09'0 0.0
2016-Jul-15 03:32N 39°54' W 075°09'0 0.0
2016-Jul-15 02:33N 39°54' W 075°09'3 2.7
2016-Jul-15 01:34N 39°54' W 075°12'0 0.3
2016-Jul-15 00:33N 39°54' W 075°12'  

Dump ship's entire track history